sensor_id;sensor_type;location;lat;lon;timestamp;pressure;altitude;pressure_sealevel;temperature;humidity
24788;BME280;12883;52.662;5.196;2023-05-10T00:00:33;100781.78;;;12.39;100.00
24788;BME280;12883;52.662;5.196;2023-05-10T00:02:58;100792.00;;;12.42;100.00
24788;BME280;12883;52.662;5.196;2023-05-10T00:05:24;100783.81;;;12.37;100.00
24788;BME280;12883;52.662;5.196;2023-05-10T00:07:49;100783.41;;;12.40;100.00
24788;BME280;12883;52.662;5.196;2023-05-10T00:10:15;100780.16;;;12.38;100.00
24788;BME280;12883;52.662;5.196;2023-05-10T00:12:40;100782.81;;;12.38;100.00
24788;BME280;12883;52.662;5.196;2023-05-10T00:15:06;100775.25;;;12.35;100.00
24788;BME280;12883;52.662;5.196;2023-05-10T00:17:31;100773.38;;;12.42;100.00
24788;BME280;12883;52.662;5.196;2023-05-10T00:19:57;100776.47;;;12.39;100.00
24788;BME280;12883;52.662;5.196;2023-05-10T00:22:22;100780.56;;;12.41;100.00
24788;BME280;12883;52.662;5.196;2023-05-10T00:24:48;100781.34;;;12.42;100.00
24788;BME280;12883;52.662;5.196;2023-05-10T00:27:13;100782.38;;;12.41;100.00
24788;BME280;12883;52.662;5.196;2023-05-10T00:29:38;100778.69;;;12.42;100.00
24788;BME280;12883;52.662;5.196;2023-05-10T00:32:04;100761.34;;;12.33;100.00
24788;BME280;12883;52.662;5.196;2023-05-10T00:34:30;100767.00;;;12.43;100.00
24788;BME280;12883;52.662;5.196;2023-05-10T00:36:55;100755.19;;;12.39;100.00
24788;BME280;12883;52.662;5.196;2023-05-10T00:39:21;100771.16;;;12.39;100.00
24788;BME280;12883;52.662;5.196;2023-05-10T00:41:46;100767.84;;;12.37;100.00
24788;BME280;12883;52.662;5.196;2023-05-10T00:44:12;100761.13;;;12.34;100.00
24788;BME280;12883;52.662;5.196;2023-05-10T00:46:37;100763.81;;;12.34;100.00
24788;BME280;12883;52.662;5.196;2023-05-10T00:49:02;100752.00;;;12.17;100.00
24788;BME280;12883;52.662;5.196;2023-05-10T00:51:28;100765.63;;;12.34;100.00
24788;BME280;12883;52.662;5.196;2023-05-10T00:53:54;100771.38;;;12.31;100.00
24788;BME280;12883;52.662;5.196;2023-05-10T00:56:21;100766.06;;;12.31;100.00
24788;BME280;12883;52.662;5.196;2023-05-10T00:58:48;100758.09;;;12.31;100.00
24788;BME280;12883;52.662;5.196;2023-05-10T01:01:14;100762.56;;;12.30;100.00
24788;BME280;12883;52.662;5.196;2023-05-10T01:03:40;100756.88;;;12.27;100.00
24788;BME280;12883;52.662;5.196;2023-05-10T01:06:05;100757.31;;;12.24;100.00
24788;BME280;12883;52.662;5.196;2023-05-10T01:08:31;100759.34;;;12.22;100.00
24788;BME280;12883;52.662;5.196;2023-05-10T01:10:57;100732.00;;;12.02;100.00
24788;BME280;12883;52.662;5.196;2023-05-10T01:13:34;100754.84;;;12.16;100.00
24788;BME280;12883;52.662;5.196;2023-05-10T01:16:01;100762.63;;;12.17;100.00
24788;BME280;12883;52.662;5.196;2023-05-10T01:18:35;100765.50;;;12.16;100.00
24788;BME280;12883;52.662;5.196;2023-05-10T01:35:22;100763.50;;;12.05;100.00
24788;BME280;12883;52.662;5.196;2023-05-10T01:43:48;100779.03;;;12.08;100.00
24788;BME280;12883;52.662;5.196;2023-05-10T01:46:22;100774.75;;;12.07;100.00
24788;BME280;12883;52.662;5.196;2023-05-10T01:48:52;100779.44;;;12.11;100.00
24788;BME280;12883;52.662;5.196;2023-05-10T01:51:25;100786.38;;;12.12;100.00
24788;BME280;12883;52.662;5.196;2023-05-10T01:53:59;100765.53;;;12.09;100.00
24788;BME280;12883;52.662;5.196;2023-05-10T01:56:28;100777.59;;;12.12;100.00
24788;BME280;12883;52.662;5.196;2023-05-10T01:58:55;100773.31;;;12.11;100.00
24788;BME280;12883;52.662;5.196;2023-05-10T02:01:22;100777.41;;;12.13;100.00
24788;BME280;12883;52.662;5.196;2023-05-10T02:03:49;100789.66;;;12.14;100.00
24788;BME280;12883;52.662;5.196;2023-05-10T02:06:16;100787.22;;;12.13;100.00
24788;BME280;12883;52.662;5.196;2023-05-10T02:08:45;100787.22;;;12.13;100.00
24788;BME280;12883;52.662;5.196;2023-05-10T02:11:13;100797.41;;;12.16;100.00
24788;BME280;12883;52.662;5.196;2023-05-10T02:13:39;100792.31;;;12.14;100.00
24788;BME280;12883;52.662;5.196;2023-05-10T02:16:06;100787.84;;;12.02;100.00
24788;BME280;12883;52.662;5.196;2023-05-10T02:18:33;100792.16;;;12.03;100.00
24788;BME280;12883;52.662;5.196;2023-05-10T02:21:01;100797.84;;;12.13;100.00
24788;BME280;12883;52.662;5.196;2023-05-10T02:23:28;100807.44;;;12.14;100.00
24788;BME280;12883;52.662;5.196;2023-05-10T02:25:55;100800.50;;;12.13;100.00
24788;BME280;12883;52.662;5.196;2023-05-10T02:28:23;100799.28;;;12.15;100.00
24788;BME280;12883;52.662;5.196;2023-05-10T02:30:50;100817.06;;;12.15;100.00
24788;BME280;12883;52.662;5.196;2023-05-10T02:33:16;100799.91;;;12.11;100.00
24788;BME280;12883;52.662;5.196;2023-05-10T02:35:42;100804.00;;;12.13;100.00
24788;BME280;12883;52.662;5.196;2023-05-10T02:38:09;100762.50;;;11.93;100.00
24788;BME280;12883;52.662;5.196;2023-05-10T02:40:37;100816.03;;;12.16;100.00
24788;BME280;12883;52.662;5.196;2023-05-10T02:43:03;100813.38;;;12.16;100.00
24788;BME280;12883;52.662;5.196;2023-05-10T02:45:31;100797.88;;;12.06;100.00
24788;BME280;12883;52.662;5.196;2023-05-10T02:47:58;100818.28;;;12.19;100.00
24788;BME280;12883;52.662;5.196;2023-05-10T02:50:26;100816.66;;;12.18;100.00
24788;BME280;12883;52.662;5.196;2023-05-10T02:52:54;100776.19;;;11.96;100.00
24788;BME280;12883;52.662;5.196;2023-05-10T02:55:25;100811.75;;;12.21;100.00
24788;BME280;12883;52.662;5.196;2023-05-10T02:57:55;100817.25;;;12.20;100.00
24788;BME280;12883;52.662;5.196;2023-05-10T03:00:21;100816.22;;;12.21;100.00
24788;BME280;12883;52.662;5.196;2023-05-10T03:02:47;100810.94;;;12.14;100.00
24788;BME280;12883;52.662;5.196;2023-05-10T03:05:12;100820.53;;;12.22;100.00
24788;BME280;12883;52.662;5.196;2023-05-10T03:07:37;100828.50;;;12.22;100.00
24788;BME280;12883;52.662;5.196;2023-05-10T03:10:03;100825.44;;;12.25;100.00
24788;BME280;12883;52.662;5.196;2023-05-10T03:18:18;100824.22;;;12.21;100.00
24788;BME280;12883;52.662;5.196;2023-05-10T03:20:48;100823.00;;;12.17;100.00
24788;BME280;12883;52.662;5.196;2023-05-10T03:23:21;100822.38;;;12.21;100.00
24788;BME280;12883;52.662;5.196;2023-05-10T03:25:48;100828.50;;;12.22;100.00
24788;BME280;12883;52.662;5.196;2023-05-10T03:28:15;100815.63;;;12.19;100.00
24788;BME280;12883;52.662;5.196;2023-05-10T03:30:42;100819.31;;;12.18;100.00
24788;BME280;12883;52.662;5.196;2023-05-10T03:33:07;100805.22;;;12.11;100.00
24788;BME280;12883;52.662;5.196;2023-05-10T03:35:33;100815.06;;;12.04;100.00
24788;BME280;12883;52.662;5.196;2023-05-10T03:37:58;100844.28;;;12.17;100.00
24788;BME280;12883;52.662;5.196;2023-05-10T03:40:25;100821.59;;;12.08;100.00
24788;BME280;12883;52.662;5.196;2023-05-10T03:42:51;100849.38;;;12.18;100.00
24788;BME280;12883;52.662;5.196;2023-05-10T03:45:16;100807.31;;;11.96;100.00
24788;BME280;12883;52.662;5.196;2023-05-10T03:47:42;100849.38;;;12.18;100.00
24788;BME280;12883;52.662;5.196;2023-05-10T03:50:07;100837.53;;;12.14;100.00
24788;BME280;12883;52.662;5.196;2023-05-10T03:52:33;100855.53;;;12.19;100.00
24788;BME280;12883;52.662;5.196;2023-05-10T03:54:58;100851.66;;;12.15;100.00
24788;BME280;12883;52.662;5.196;2023-05-10T03:57:23;100841.03;;;12.08;100.00
24788;BME280;12883;52.662;5.196;2023-05-10T03:59:49;100847.16;;;12.09;100.00
24788;BME280;12883;52.662;5.196;2023-05-10T04:02:15;100852.91;;;12.06;100.00
24788;BME280;12883;52.662;5.196;2023-05-10T04:04:40;100853.09;;;12.04;100.00
24788;BME280;12883;52.662;5.196;2023-05-10T04:07:05;100842.88;;;12.01;100.00
24788;BME280;12883;52.662;5.196;2023-05-10T04:09:31;100827.97;;;11.94;100.00
24788;BME280;12883;52.662;5.196;2023-05-10T04:11:56;100839.22;;;11.89;100.00
24788;BME280;12883;52.662;5.196;2023-05-10T04:14:21;100834.72;;;11.96;100.00
24788;BME280;12883;52.662;5.196;2023-05-10T04:16:47;100824.69;;;11.85;100.00
24788;BME280;12883;52.662;5.196;2023-05-10T04:19:12;100846.97;;;11.97;100.00
24788;BME280;12883;52.662;5.196;2023-05-10T04:21:37;100844.09;;;11.92;100.00
24788;BME280;12883;52.662;5.196;2023-05-10T04:24:03;100840.44;;;11.93;100.00
24788;BME280;12883;52.662;5.196;2023-05-10T04:26:28;100850.25;;;11.93;100.00
24788;BME280;12883;52.662;5.196;2023-05-10T04:28:54;100849.03;;;11.95;100.00
24788;BME280;12883;52.662;5.196;2023-05-10T04:31:19;100851.88;;;11.94;100.00
24788;BME280;12883;52.662;5.196;2023-05-10T04:33:45;100856.59;;;11.92;100.00
24788;BME280;12883;52.662;5.196;2023-05-10T04:36:10;100853.31;;;11.96;100.00
24788;BME280;12883;52.662;5.196;2023-05-10T04:38:35;100848.63;;;11.85;100.00
24788;BME280;12883;52.662;5.196;2023-05-10T04:41:06;100848.22;;;11.82;100.00
24788;BME280;12883;52.662;5.196;2023-05-10T04:43:31;100863.34;;;11.94;100.00
24788;BME280;12883;52.662;5.196;2023-05-10T04:45:57;100867.66;;;11.95;100.00
24788;BME280;12883;52.662;5.196;2023-05-10T04:48:22;100873.59;;;11.91;100.00
24788;BME280;12883;52.662;5.196;2023-05-10T04:50:47;100874.00;;;11.94;100.00
24788;BME280;12883;52.662;5.196;2023-05-10T04:53:13;100866.22;;;11.93;100.00
24788;BME280;12883;52.662;5.196;2023-05-10T04:55:38;100878.47;;;11.94;100.00
24788;BME280;12883;52.662;5.196;2023-05-10T04:58:03;100882.16;;;11.93;100.00
24788;BME280;12883;52.662;5.196;2023-05-10T05:00:29;100873.16;;;11.94;100.00
24788;BME280;12883;52.662;5.196;2023-05-10T05:02:54;100890.97;;;11.93;100.00
24788;BME280;12883;52.662;5.196;2023-05-10T05:05:20;100878.91;;;11.91;100.00
24788;BME280;12883;52.662;5.196;2023-05-10T05:07:45;100886.06;;;11.90;100.00
24788;BME280;12883;52.662;5.196;2023-05-10T05:10:11;100886.88;;;11.91;100.00
24788;BME280;12883;52.662;5.196;2023-05-10T05:12:36;100848.84;;;11.58;100.00
24788;BME280;12883;52.662;5.196;2023-05-10T05:15:02;100890.16;;;11.93;100.00
24788;BME280;12883;52.662;5.196;2023-05-10T05:17:30;100899.16;;;11.92;100.00
24788;BME280;12883;52.662;5.196;2023-05-10T05:19:55;100905.06;;;11.94;100.00
24788;BME280;12883;52.662;5.196;2023-05-10T05:22:21;100908.38;;;11.96;100.00
24788;BME280;12883;52.662;5.196;2023-05-10T05:24:52;100905.72;;;11.96;100.00
24788;BME280;12883;52.662;5.196;2023-05-10T05:27:18;100908.75;;;11.93;100.00
24788;BME280;12883;52.662;5.196;2023-05-10T05:29:43;100907.72;;;11.94;100.00
24788;BME280;12883;52.662;5.196;2023-05-10T05:32:08;100899.75;;;11.81;100.00
24788;BME280;12883;52.662;5.196;2023-05-10T05:34:34;100872.38;;;11.67;100.00
24788;BME280;12883;52.662;5.196;2023-05-10T05:36:59;100925.97;;;11.97;100.00
24788;BME280;12883;52.662;5.196;2023-05-10T05:39:24;100922.28;;;11.98;100.00
24788;BME280;12883;52.662;5.196;2023-05-10T05:41:50;100927.38;;;11.99;100.00
24788;BME280;12883;52.662;5.196;2023-05-10T05:44:15;100928.78;;;12.02;100.00
24788;BME280;12883;52.662;5.196;2023-05-10T05:46:40;100935.78;;;12.03;100.00
24788;BME280;12883;52.662;5.196;2023-05-10T05:49:06;100928.78;;;12.02;100.00
24788;BME280;12883;52.662;5.196;2023-05-10T05:51:31;100938.22;;;12.04;100.00
24788;BME280;12883;52.662;5.196;2023-05-10T05:53:56;100941.91;;;12.03;100.00
24788;BME280;12883;52.662;5.196;2023-05-10T05:56:21;100935.78;;;12.03;100.00
24788;BME280;12883;52.662;5.196;2023-05-10T05:58:52;100914.06;;;11.93;100.00
24788;BME280;12883;52.662;5.196;2023-05-10T06:01:18;100936.38;;;12.11;100.00
24788;BME280;12883;52.662;5.196;2023-05-10T06:03:43;100934.31;;;12.07;100.00
24788;BME280;12883;52.662;5.196;2023-05-10T06:06:08;100939.25;;;12.10;100.00
24788;BME280;12883;52.662;5.196;2023-05-10T06:08:34;100941.06;;;12.09;100.00
24788;BME280;12883;52.662;5.196;2023-05-10T06:11:00;100939.84;;;12.12;100.00
24788;BME280;12883;52.662;5.196;2023-05-10T06:13:25;100938.63;;;12.14;100.00
24788;BME280;12883;52.662;5.196;2023-05-10T06:15:57;100950.06;;;12.15;100.00
24788;BME280;12883;52.662;5.196;2023-05-10T06:18:22;100946.81;;;12.13;100.00
24788;BME280;12883;52.662;5.196;2023-05-10T06:20:49;100947.00;;;12.18;100.00
24788;BME280;12883;52.662;5.196;2023-05-10T06:23:14;100944.13;;;12.19;100.00
24788;BME280;12883;52.662;5.196;2023-05-10T06:25:40;100935.94;;;12.21;100.00
24788;BME280;12883;52.662;5.196;2023-05-10T06:28:05;100932.50;;;12.20;100.00
24788;BME280;12883;52.662;5.196;2023-05-10T06:30:31;100934.94;;;12.09;100.00
24788;BME280;12883;52.662;5.196;2023-05-10T06:32:56;100952.94;;;12.20;100.00
24788;BME280;12883;52.662;5.196;2023-05-10T06:35:22;100930.88;;;12.06;100.00
24788;BME280;12883;52.662;5.196;2023-05-10T06:37:48;100954.97;;;12.24;100.00
24788;BME280;12883;52.662;5.196;2023-05-10T06:40:13;100945.56;;;12.22;100.00
24788;BME280;12883;52.662;5.196;2023-05-10T06:42:38;100959.69;;;12.29;100.00
24788;BME280;12883;52.662;5.196;2023-05-10T06:45:04;100948.84;;;12.30;100.00
24788;BME280;12883;52.662;5.196;2023-05-10T06:47:30;100927.16;;;12.20;100.00
24788;BME280;12883;52.662;5.196;2023-05-10T06:49:55;100944.94;;;12.33;100.00
24788;BME280;12883;52.662;5.196;2023-05-10T06:52:21;100951.06;;;12.33;100.00
24788;BME280;12883;52.662;5.196;2023-05-10T06:54:46;100960.25;;;12.44;100.00
24788;BME280;12883;52.662;5.196;2023-05-10T06:57:11;100967.03;;;12.46;100.00
24788;BME280;12883;52.662;5.196;2023-05-10T06:59:37;100958.63;;;12.49;100.00
24788;BME280;12883;52.662;5.196;2023-05-10T07:02:02;100961.69;;;12.53;100.00
24788;BME280;12883;52.662;5.196;2023-05-10T07:04:28;100970.50;;;12.60;100.00
24788;BME280;12883;52.662;5.196;2023-05-10T07:06:53;100942.44;;;12.51;100.00
24788;BME280;12883;52.662;5.196;2023-05-10T07:09:19;100962.28;;;12.68;100.00
24788;BME280;12883;52.662;5.196;2023-05-10T07:11:44;100962.44;;;12.79;100.00
24788;BME280;12883;52.662;5.196;2023-05-10T07:14:10;100972.47;;;12.84;100.00
24788;BME280;12883;52.662;5.196;2023-05-10T07:16:35;100962.44;;;12.79;100.00
24788;BME280;12883;52.662;5.196;2023-05-10T07:19:01;100968.75;;;12.85;100.00
24788;BME280;12883;52.662;5.196;2023-05-10T07:21:27;100970.81;;;12.89;100.00
24788;BME280;12883;52.662;5.196;2023-05-10T07:23:54;100940.97;;;12.68;100.00
24788;BME280;12883;52.662;5.196;2023-05-10T07:26:19;100977.78;;;12.97;100.00
24788;BME280;12883;52.662;5.196;2023-05-10T07:28:46;100978.78;;;13.02;100.00
24788;BME280;12883;52.662;5.196;2023-05-10T07:31:11;100972.59;;;13.08;100.00
24788;BME280;12883;52.662;5.196;2023-05-10T07:33:36;100966.22;;;13.16;100.00
24788;BME280;12883;52.662;5.196;2023-05-10T07:36:02;100936.38;;;13.01;100.00
24788;BME280;12883;52.662;5.196;2023-05-10T07:38:27;100975.75;;;13.36;100.00
24788;BME280;12883;52.662;5.196;2023-05-10T07:40:52;100977.63;;;13.36;100.00
24788;BME280;12883;52.662;5.196;2023-05-10T07:43:18;100975.38;;;13.33;100.00
24788;BME280;12883;52.662;5.196;2023-05-10T07:45:43;100974.69;;;13.44;100.00
24788;BME280;12883;52.662;5.196;2023-05-10T07:48:08;100986.91;;;13.58;100.00
24788;BME280;12883;52.662;5.196;2023-05-10T07:50:34;100988.75;;;13.64;100.00
24788;BME280;12883;52.662;5.196;2023-05-10T07:52:59;100977.41;;;13.68;100.00
24788;BME280;12883;52.662;5.196;2023-05-10T07:55:24;100972.47;;;13.72;100.00
24788;BME280;12883;52.662;5.196;2023-05-10T07:57:50;100990.47;;;13.83;100.00
24788;BME280;12883;52.662;5.196;2023-05-10T08:00:18;100985.50;;;13.86;100.00
24788;BME280;12883;52.662;5.196;2023-05-10T08:02:44;100985.53;;;13.80;100.00
24788;BME280;12883;52.662;5.196;2023-05-10T08:05:09;100986.69;;;13.90;100.00
24788;BME280;12883;52.662;5.196;2023-05-10T08:07:35;101001.19;;;14.01;100.00
24788;BME280;12883;52.662;5.196;2023-05-10T08:10:02;100996.41;;;14.09;100.00
24788;BME280;12883;52.662;5.196;2023-05-10T08:12:27;101004.13;;;14.24;100.00
24788;BME280;12883;52.662;5.196;2023-05-10T08:14:52;101012.13;;;14.24;100.00
24788;BME280;12883;52.662;5.196;2023-05-10T08:17:18;101013.13;;;14.29;100.00
24788;BME280;12883;52.662;5.196;2023-05-10T08:19:43;101004.84;;;14.37;100.00
24788;BME280;12883;52.662;5.196;2023-05-10T08:22:08;101006.84;;;14.42;100.00
24788;BME280;12883;52.662;5.196;2023-05-10T08:24:34;101022.94;;;14.35;100.00
24788;BME280;12883;52.662;5.196;2023-05-10T08:27:04;101014.41;;;14.45;100.00
24788;BME280;12883;52.662;5.196;2023-05-10T08:29:29;101021.28;;;14.59;100.00
24788;BME280;12883;52.662;5.196;2023-05-10T08:31:55;101021.03;;;14.60;100.00
24788;BME280;12883;52.662;5.196;2023-05-10T08:34:20;101025.47;;;14.73;100.00
24788;BME280;12883;52.662;5.196;2023-05-10T08:36:45;101015.03;;;14.65;100.00
24788;BME280;12883;52.662;5.196;2023-05-10T08:39:11;101024.97;;;14.58;100.00
24788;BME280;12883;52.662;5.196;2023-05-10T08:41:39;101042.97;;;14.69;100.00
24788;BME280;12883;52.662;5.196;2023-05-10T08:44:05;101038.38;;;14.76;100.00
24788;BME280;12883;52.662;5.196;2023-05-10T08:46:34;101036.78;;;14.68;100.00
24788;BME280;12883;52.662;5.196;2023-05-10T08:49:03;101052.56;;;14.76;100.00
24788;BME280;12883;52.662;5.196;2023-05-10T08:51:34;101029.53;;;14.75;100.00
24788;BME280;12883;52.662;5.196;2023-05-10T08:54:02;101052.13;;;14.97;100.00
24788;BME280;12883;52.662;5.196;2023-05-10T08:56:27;101046.13;;;15.01;100.00
24788;BME280;12883;52.662;5.196;2023-05-10T08:58:53;101058.81;;;15.06;100.00
24788;BME280;12883;52.662;5.196;2023-05-10T09:01:19;101057.97;;;15.05;100.00
24788;BME280;12883;52.662;5.196;2023-05-10T09:03:46;101059.97;;;15.10;100.00
24788;BME280;12883;52.662;5.196;2023-05-10T09:06:12;101066.63;;;15.07;100.00
24788;BME280;12883;52.662;5.196;2023-05-10T09:08:38;101065.84;;;15.18;100.00
24788;BME280;12883;52.662;5.196;2023-05-10T09:11:05;101073.88;;;15.18;100.00
24788;BME280;12883;52.662;5.196;2023-05-10T09:13:30;101067.19;;;15.27;100.00
24788;BME280;12883;52.662;5.196;2023-05-10T09:15:56;101078.44;;;15.18;100.00
24788;BME280;12883;52.662;5.196;2023-05-10T09:18:22;101080.56;;;15.27;100.00
24788;BME280;12883;52.662;5.196;2023-05-10T09:20:48;101067.81;;;15.29;100.00
24788;BME280;12883;52.662;5.196;2023-05-10T09:23:14;101075.97;;;15.52;100.00
24788;BME280;12883;52.662;5.196;2023-05-10T09:25:41;101084.69;;;15.66;100.00
24788;BME280;12883;52.662;5.196;2023-05-10T09:28:07;101089.03;;;15.60;100.00
24788;BME280;12883;52.662;5.196;2023-05-10T09:30:34;101073.13;;;15.65;100.00
24788;BME280;12883;52.662;5.196;2023-05-10T09:33:00;101083.31;;;15.75;100.00
24788;BME280;12883;52.662;5.196;2023-05-10T09:35:27;101084.00;;;15.70;100.00
24788;BME280;12883;52.662;5.196;2023-05-10T09:37:56;101090.06;;;15.77;100.00
24788;BME280;12883;52.662;5.196;2023-05-10T09:40:26;101056.22;;;15.53;100.00
24788;BME280;12883;52.662;5.196;2023-05-10T09:43:08;101090.59;;;15.68;100.00
24788;BME280;12883;52.662;5.196;2023-05-10T09:45:35;101058.94;;;15.29;100.00
24788;BME280;12883;52.662;5.196;2023-05-10T09:48:01;101106.16;;;15.41;100.00
24788;BME280;12883;52.662;5.196;2023-05-10T09:50:28;101121.28;;;15.47;100.00
24788;BME280;12883;52.662;5.196;2023-05-10T09:52:55;101119.09;;;15.44;100.00
24788;BME280;12883;52.662;5.196;2023-05-10T09:55:25;101079.53;;;15.28;100.00
24788;BME280;12883;52.662;5.196;2023-05-10T09:58:01;101124.59;;;15.49;100.00
24788;BME280;12883;52.662;5.196;2023-05-10T10:00:27;101110.16;;;15.32;100.00
24788;BME280;12883;52.662;5.196;2023-05-10T10:02:57;101114.84;;;15.37;100.00
24788;BME280;12883;52.662;5.196;2023-05-10T10:05:34;101130.38;;;15.46;100.00
24788;BME280;12883;52.662;5.196;2023-05-10T10:08:03;101118.94;;;15.39;100.00
24788;BME280;12883;52.662;5.196;2023-05-10T10:10:30;101121.75;;;15.44;100.00
24788;BME280;12883;52.662;5.196;2023-05-10T10:12:56;101119.00;;;15.33;100.00
24788;BME280;12883;52.662;5.196;2023-05-10T10:15:22;101129.19;;;15.42;100.00
24788;BME280;12883;52.662;5.196;2023-05-10T10:17:48;101122.59;;;15.45;100.00
24788;BME280;12883;52.662;5.196;2023-05-10T10:20:15;101126.88;;;15.64;100.00
24788;BME280;12883;52.662;5.196;2023-05-10T10:22:41;101126.81;;;15.52;100.00
24788;BME280;12883;52.662;5.196;2023-05-10T10:25:10;101119.28;;;15.43;100.00
24788;BME280;12883;52.662;5.196;2023-05-10T10:27:47;101129.91;;;15.67;100.00
24788;BME280;12883;52.662;5.196;2023-05-10T10:30:37;101135.50;;;15.66;100.00
24788;BME280;12883;52.662;5.196;2023-05-10T10:35:49;101133.94;;;15.76;100.00
24788;BME280;12883;52.662;5.196;2023-05-10T10:38:15;101134.47;;;15.67;100.00
24788;BME280;12883;52.662;5.196;2023-05-10T10:40:41;101139.28;;;15.58;100.00
24788;BME280;12883;52.662;5.196;2023-05-10T10:43:26;101109.94;;;15.34;100.00
24788;BME280;12883;52.662;5.196;2023-05-10T10:46:21;101135.28;;;15.49;100.00
24788;BME280;12883;52.662;5.196;2023-05-10T10:48:50;101128.31;;;15.48;100.00
24788;BME280;12883;52.662;5.196;2023-05-10T10:51:17;101131.56;;;15.50;100.00
24788;BME280;12883;52.662;5.196;2023-05-10T10:53:43;101144.19;;;15.61;100.00
24788;BME280;12883;52.662;5.196;2023-05-10T10:56:09;101142.56;;;15.60;100.00
24788;BME280;12883;52.662;5.196;2023-05-10T10:58:37;101138.31;;;15.71;100.00
24788;BME280;12883;52.662;5.196;2023-05-10T11:01:18;101139.56;;;15.68;100.00
24788;BME280;12883;52.662;5.196;2023-05-10T11:06:31;101134.66;;;15.83;100.00
24788;BME280;12883;52.662;5.196;2023-05-10T11:08:57;101136.94;;;15.98;100.00
24788;BME280;12883;52.662;5.196;2023-05-10T11:11:23;101138.50;;;15.87;100.00
24788;BME280;12883;52.662;5.196;2023-05-10T11:13:49;101152.31;;;16.02;100.00
24788;BME280;12883;52.662;5.196;2023-05-10T11:18:40;101138.50;;;15.87;100.00
24788;BME280;12883;52.662;5.196;2023-05-10T11:21:08;101151.88;;;16.05;100.00
24788;BME280;12883;52.662;5.196;2023-05-10T11:26:09;101155.00;;;16.02;100.00
24788;BME280;12883;52.662;5.196;2023-05-10T11:28:46;101156.69;;;16.15;100.00
24788;BME280;12883;52.662;5.196;2023-05-10T11:31:16;101152.34;;;16.14;100.00
24788;BME280;12883;52.662;5.196;2023-05-10T11:33:44;101156.34;;;16.11;100.00
24788;BME280;12883;52.662;5.196;2023-05-10T11:36:21;101169.03;;;16.16;100.00
24788;BME280;12883;52.662;5.196;2023-05-10T11:38:47;101171.75;;;16.27;100.00
24788;BME280;12883;52.662;5.196;2023-05-10T11:41:13;101167.88;;;16.23;100.00
24788;BME280;12883;52.662;5.196;2023-05-10T11:43:39;101176.47;;;16.14;100.00
24788;BME280;12883;52.662;5.196;2023-05-10T11:46:06;101171.47;;;16.17;100.00
24788;BME280;12883;52.662;5.196;2023-05-10T11:48:32;101173.84;;;16.25;100.00
24788;BME280;12883;52.662;5.196;2023-05-10T11:50:58;101172.94;;;16.31;100.00
24788;BME280;12883;52.662;5.196;2023-05-10T11:53:26;101183.41;;;16.33;100.00
24788;BME280;12883;52.662;5.196;2023-05-10T11:55:52;101176.75;;;16.24;100.00
24788;BME280;12883;52.662;5.196;2023-05-10T11:58:18;101179.88;;;16.21;100.00
24788;BME280;12883;52.662;5.196;2023-05-10T12:00:44;101188.56;;;16.34;100.00
24788;BME280;12883;52.662;5.196;2023-05-10T12:03:10;101181.09;;;16.36;100.00
24788;BME280;12883;52.662;5.196;2023-05-10T12:05:36;101190.19;;;16.35;100.00
24788;BME280;12883;52.662;5.196;2023-05-10T12:08:14;101182.09;;;16.24;100.00
24788;BME280;12883;52.662;5.196;2023-05-10T12:10:40;101197.16;;;16.36;100.00
24788;BME280;12883;52.662;5.196;2023-05-10T12:13:11;101184.81;;;16.35;100.00
24788;BME280;12883;52.662;5.196;2023-05-10T12:15:37;101189.19;;;16.48;100.00
24788;BME280;12883;52.662;5.196;2023-05-10T12:18:02;101195.28;;;16.55;100.00
24788;BME280;12883;52.662;5.196;2023-05-10T12:20:28;101196.78;;;16.51;100.00
24788;BME280;12883;52.662;5.196;2023-05-10T12:22:55;101196.22;;;16.49;100.00
24788;BME280;12883;52.662;5.196;2023-05-10T12:25:23;101196.56;;;16.52;100.00
24788;BME280;12883;52.662;5.196;2023-05-10T12:27:54;101205.44;;;16.35;100.00
24788;BME280;12883;52.662;5.196;2023-05-10T12:30:25;101199.25;;;16.34;100.00
24788;BME280;12883;52.662;5.196;2023-05-10T12:32:50;101204.63;;;16.34;100.00
24788;BME280;12883;52.662;5.196;2023-05-10T12:35:16;101202.25;;;16.26;100.00
24788;BME280;12883;52.662;5.196;2023-05-10T12:37:43;101206.72;;;16.32;100.00
24788;BME280;12883;52.662;5.196;2023-05-10T12:40:10;101204.56;;;16.41;100.00
24788;BME280;12883;52.662;5.196;2023-05-10T12:42:36;101196.44;;;16.29;100.00
24788;BME280;12883;52.662;5.196;2023-05-10T12:45:03;101206.56;;;16.45;100.00
24788;BME280;12883;52.662;5.196;2023-05-10T12:47:29;101212.94;;;16.44;100.00
24788;BME280;12883;52.662;5.196;2023-05-10T12:49:55;101214.50;;;16.34;100.00
24788;BME280;12883;52.662;5.196;2023-05-10T12:52:20;101208.88;;;16.42;100.00
24788;BME280;12883;52.662;5.196;2023-05-10T12:54:46;101219.00;;;16.40;100.00
24788;BME280;12883;52.662;5.196;2023-05-10T12:57:13;101193.47;;;16.37;100.00
24788;BME280;12883;52.662;5.196;2023-05-10T12:59:38;101219.19;;;16.56;100.00
24788;BME280;12883;52.662;5.196;2023-05-10T13:02:04;101212.91;;;16.62;100.00
24788;BME280;12883;52.662;5.196;2023-05-10T13:04:29;101217.50;;;16.73;100.00
24788;BME280;12883;52.662;5.196;2023-05-10T13:06:54;101211.16;;;16.68;100.00
24788;BME280;12883;52.662;5.196;2023-05-10T13:09:26;101204.88;;;16.62;100.00
24788;BME280;12883;52.662;5.196;2023-05-10T13:11:53;101216.09;;;16.71;100.00
24788;BME280;12883;52.662;5.196;2023-05-10T13:14:19;101201.63;;;16.72;100.00